Time;durP1;ratioP1;P1;durP2;ratioP2;P2;SDS_P1;SDS_P2;PMS_P1;PMS_P2;Temp;Humidity;BMP_temperature;BMP_pressure;BME280_temperature;BME280_humidity;BME280_pressure;Samples;Min_cycle;Max_cycle;Signal;HPM_P1;HPM_P2
2023/05/12 00:00:27;;;;;;;35.47;26.42;;;;;;;12.19;100.00;100914.25;4893455;29;20040;-82
2023/05/12 00:02:53;;;;;;;36.70;27.40;;;;;;;12.20;100.00;100915.13;4911786;29;20048;-85
2023/05/12 00:05:20;;;;;;;37.08;25.92;;;;;;;12.19;100.00;100919.50;4896223;29;20048;-83
2023/05/12 00:07:46;;;;;;;32.75;23.25;;;;;;;12.20;100.00;100923.00;4897735;29;20052;-80
2023/05/12 00:10:13;;;;;;;36.05;26.25;;;;;;;12.21;100.00;100928.22;4892729;29;20036;-80
2023/05/12 00:12:41;;;;;;;34.20;25.63;;;;;;;12.25;100.00;100921.19;4893214;29;20067;-81
2023/05/12 00:15:08;;;;;;;30.60;22.80;;;;;;;12.26;100.00;100909.81;4884444;29;20344;-81
2023/05/12 00:17:34;;;;;;;34.97;25.73;;;;;;;12.26;100.00;100907.19;4894670;29;20064;-82
2023/05/12 00:20:01;;;;;;;30.73;23.77;;;;;;;12.27;100.00;100910.66;4914225;29;20052;-81
2023/05/12 00:22:27;;;;;;;34.95;26.75;;;;;;;12.27;100.00;100908.03;4910211;29;20079;-84
2023/05/12 00:24:54;;;;;;;34.55;26.00;;;;;;;12.27;100.00;100911.53;4902071;29;20083;-82
2023/05/12 00:27:20;;;;;;;30.08;23.75;;;;;;;12.27;100.00;100914.16;4899488;29;20048;-86
2023/05/12 00:29:47;;;;;;;29.45;24.20;;;;;;;12.28;100.00;100908.03;4870109;29;20147;-81
2023/05/12 00:32:13;;;;;;;33.20;23.80;;;;;;;12.28;100.00;100912.41;4910855;29;20518;-82
2023/05/12 00:34:41;;;;;;;25.88;21.02;;;;;;;12.28;100.00;100915.03;4884650;29;20131;-81
2023/05/12 00:37:07;;;;;;;29.67;23.90;;;;;;;12.28;100.00;100913.28;4895380;29;20072;-82
2023/05/12 00:39:34;;;;;;;33.70;25.73;;;;;;;12.28;100.00;100920.28;4895998;29;20055;-84
2023/05/12 00:42:00;;;;;;;33.65;25.00;;;;;;;12.29;100.00;100916.78;4900476;29;20119;-80
2023/05/12 00:44:27;;;;;;;25.05;20.33;;;;;;;12.31;100.00;100915.88;4889566;29;20055;-82
2023/05/12 00:46:54;;;;;;;26.35;21.35;;;;;;;12.30;100.00;100908.88;4898464;29;20048;-83
2023/05/12 00:49:21;;;;;;;33.08;24.98;;;;;;;12.31;100.00;100912.38;4894252;29;20047;-87
2023/05/12 00:51:48;;;;;;;32.75;26.83;;;;;;;12.31;100.00;100925.50;4905535;29;20043;-81
2023/05/12 00:54:14;;;;;;;30.75;23.67;;;;;;;12.28;100.00;100917.66;4893134;29;20051;-83
2023/05/12 00:56:41;;;;;;;25.08;20.40;;;;;;;12.27;100.00;100926.41;4900137;29;20047;-81
2023/05/12 00:59:08;;;;;;;32.72;24.90;;;;;;;12.23;100.00;100921.19;4900174;29;20044;-82
2023/05/12 01:01:35;;;;;;;28.67;22.00;;;;;;;12.22;100.00;100931.72;4895620;29;20484;-87
2023/05/12 01:04:02;;;;;;;36.67;25.17;;;;;;;12.21;100.00;100937.84;4899127;29;20051;-82
2023/05/12 01:06:43;;;;;;;33.42;23.70;;;;;;;12.24;100.00;100941.31;4896417;29;20574;-82
2023/05/12 01:09:10;;;;;;;31.65;23.50;;;;;;;12.28;100.00;100938.66;4908715;29;20653;-84
2023/05/12 01:11:38;;;;;;;27.55;21.50;;;;;;;12.31;100.00;100941.25;4899800;29;20044;-84
2023/05/12 01:14:04;;;;;;;32.05;24.55;;;;;;;12.30;100.00;100931.63;4897555;29;20062;-90
2023/05/12 01:16:48;;;;;;;28.95;21.80;;;;;;;12.29;100.00;100932.53;4905998;29;20040;-81
2023/05/12 01:19:52;;;;;;;27.75;21.88;;;;;;;12.28;100.00;100928.16;4914392;29;20051;-81
2023/05/12 01:22:21;;;;;;;30.67;23.25;;;;;;;12.24;100.00;100928.19;4898511;29;20052;-84
2023/05/12 01:24:58;;;;;;;39.75;25.90;;;;;;;12.23;100.00;100930.84;4888452;29;20039;-82
2023/05/12 01:27:27;;;;;;;30.50;21.50;;;;;;;12.20;100.00;100925.63;4934217;29;20044;-82
2023/05/12 01:29:58;;;;;;;33.88;24.15;;;;;;;12.19;100.00;100927.38;4899328;29;20163;-80
2023/05/12 01:32:25;;;;;;;32.55;24.00;;;;;;;12.19;100.00;100926.50;4918985;29;20056;-83
2023/05/12 01:34:51;;;;;;;34.28;23.75;;;;;;;12.19;100.00;100935.25;4902052;29;20061;-83
2023/05/12 01:37:18;;;;;;;31.92;21.25;;;;;;;12.19;100.00;100940.50;4917462;29;20052;-81
2023/05/12 01:39:45;;;;;;;34.25;24.80;;;;;;;12.19;100.00;100937.88;4934681;29;20062;-81
2023/05/12 01:42:11;;;;;;;33.55;21.95;;;;;;;12.17;100.00;100931.75;4916527;29;20048;-81
2023/05/12 01:44:38;;;;;;;29.65;22.10;;;;;;;12.14;100.00;100936.19;4913532;29;20036;-81
2023/05/12 01:47:08;;;;;;;33.35;22.73;;;;;;;12.13;100.00;100940.56;4922970;29;20400;-85
2023/05/12 01:49:35;;;;;;;26.00;20.60;;;;;;;12.14;100.00;100949.31;4915130;29;20138;-88
2023/05/12 01:52:01;;;;;;;30.27;21.52;;;;;;;12.13;100.00;100948.44;4905509;29;20044;-90
2023/05/12 01:54:28;;;;;;;32.10;21.15;;;;;;;12.12;100.00;100937.97;4925944;29;20762;-81
2023/05/12 01:56:54;;;;;;;35.08;25.25;;;;;;;12.13;100.00;100944.94;4906974;29;20076;-85
2023/05/12 01:59:21;;;;;;;28.70;21.67;;;;;;;12.12;100.00;100938.81;4915037;29;20123;-81
2023/05/12 02:01:47;;;;;;;34.10;24.80;;;;;;;12.12;100.00;100945.84;4901097;29;20047;-81
2023/05/12 02:04:14;;;;;;;34.08;25.75;;;;;;;12.11;100.00;100947.59;4919768;29;20044;-81
2023/05/12 02:06:41;;;;;;;30.35;22.27;;;;;;;12.12;100.00;100958.94;4908930;29;20067;-81
2023/05/12 02:09:10;;;;;;;35.70;23.13;;;;;;;12.12;100.00;100962.44;4915523;29;20054;-81
2023/05/12 02:11:36;;;;;;;35.80;25.45;;;;;;;12.13;100.00;100964.19;4915702;29;20509;-87
2023/05/12 02:14:03;;;;;;;33.15;22.23;;;;;;;12.11;100.00;100955.47;4912584;29;20054;-85
2023/05/12 02:16:29;;;;;;;26.65;20.92;;;;;;;12.12;100.00;100958.94;4913730;29;20476;-81
2023/05/12 02:18:56;;;;;;;31.70;22.38;;;;;;;12.13;100.00;100963.31;4935203;29;20040;-81
2023/05/12 02:21:23;;;;;;;25.52;19.73;;;;;;;12.13;100.00;100964.19;4916127;29;20051;-82
2023/05/12 02:23:49;;;;;;;32.08;23.73;;;;;;;12.13;100.00;100961.56;4904862;29;20600;-82
2023/05/12 02:26:15;;;;;;;31.63;20.67;;;;;;;12.11;100.00;100963.34;4902030;29;20064;-81
2023/05/12 02:28:42;;;;;;;26.67;19.95;;;;;;;12.12;100.00;100962.44;4889454;29;20033;-82
2023/05/12 02:31:08;;;;;;;28.30;20.88;;;;;;;12.13;100.00;100960.69;4890281;29;20040;-82
2023/05/12 02:33:35;;;;;;;38.15;24.48;;;;;;;12.12;100.00;100964.19;4898342;29;20649;-82
2023/05/12 02:36:02;;;;;;;27.35;20.40;;;;;;;12.11;100.00;100960.72;4895151;29;20068;-85
2023/05/12 02:38:28;;;;;;;26.63;20.08;;;;;;;12.12;100.00;100970.31;4918734;29;20044;-81
2023/05/12 02:40:55;;;;;;;37.47;25.67;;;;;;;12.12;100.00;100958.94;4883458;29;20048;-82
2023/05/12 02:43:22;;;;;;;36.28;25.63;;;;;;;12.13;100.00;100958.06;4911575;29;20051;-84
2023/05/12 02:45:48;;;;;;;34.38;25.20;;;;;;;12.12;100.00;100957.19;4895595;29;20051;-82
2023/05/12 02:48:15;;;;;;;37.67;26.73;;;;;;;12.12;100.00;100954.56;4881911;29;20112;-84
2023/05/12 02:50:42;;;;;;;33.40;24.55;;;;;;;12.12;100.00;100951.94;4896876;29;20062;-82
2023/05/12 02:53:08;;;;;;;35.63;22.52;;;;;;;12.11;100.00;100947.59;4896274;29;20059;-84
2023/05/12 02:55:35;;;;;;;34.60;25.33;;;;;;;12.13;100.00;100947.56;4881724;29;20480;-83
2023/05/12 02:58:03;;;;;;;37.75;25.85;;;;;;;12.13;100.00;100955.44;4878159;29;20048;-82
2023/05/12 03:00:29;;;;;;;34.78;24.05;;;;;;;12.10;100.00;100942.34;4893080;29;20052;-82
2023/05/12 03:02:56;;;;;;;36.88;25.10;;;;;;;12.10;100.00;100948.47;4894541;29;20051;-85
2023/05/12 03:05:22;;;;;;;27.17;19.35;;;;;;;12.08;100.00;100947.63;4903327;29;20055;-87
2023/05/12 03:07:56;;;;;;;23.88;18.17;;;;;;;12.08;100.00;100968.59;4897881;29;20047;-82
2023/05/12 03:10:23;;;;;;;37.97;25.80;;;;;;;12.09;100.00;100957.22;4874780;29;20411;-83
2023/05/12 03:12:52;;;;;;;28.65;21.23;;;;;;;12.08;100.00;100959.00;4902457;29;20050;-83
2023/05/12 03:15:19;;;;;;;36.42;24.77;;;;;;;12.07;100.00;100949.38;4896414;29;20048;-81
2023/05/12 03:17:46;;;;;;;25.58;20.52;;;;;;;12.08;100.00;100968.59;4896268;29;20475;-81
2023/05/12 03:20:12;;;;;;;30.23;22.35;;;;;;;12.09;100.00;100957.22;4901281;29;20059;-81
2023/05/12 03:22:39;;;;;;;27.40;21.10;;;;;;;12.09;100.00;100951.97;4898497;29;20100;-81
2023/05/12 03:25:07;;;;;;;27.75;20.40;;;;;;;12.08;100.00;100956.38;4886286;29;20052;-90
2023/05/12 03:27:35;;;;;;;29.63;20.75;;;;;;;12.08;100.00;100955.47;4894410;29;20076;-81
2023/05/12 03:30:03;;;;;;;22.77;18.63;;;;;;;12.07;100.00;100961.59;4902707;29;20048;-81
2023/05/12 03:32:30;;;;;;;25.50;19.73;;;;;;;12.08;100.00;100958.09;4897675;29;20048;-81
2023/05/12 03:34:57;;;;;;;31.63;16.48;;;;;;;12.06;100.00;100966.00;4884474;29;20055;-81
2023/05/12 03:37:24;;;;;;;29.25;22.60;;;;;;;12.07;100.00;100969.47;4897126;29;20059;-83
2023/05/12 03:39:50;;;;;;;29.50;20.98;;;;;;;12.07;100.00;100975.63;4899282;29;20583;-86
2023/05/12 03:42:18;;;;;;;23.52;19.85;;;;;;;12.08;100.00;100968.59;4899571;29;20044;-81
2023/05/12 03:44:44;;;;;;;25.30;20.50;;;;;;;12.10;100.00;100960.72;4900876;29;20071;-82
2023/05/12 03:47:11;;;;;;;28.13;21.80;;;;;;;12.11;100.00;100962.47;4907643;29;20044;-82
2023/05/12 03:49:37;;;;;;;27.98;21.33;;;;;;;12.11;100.00;100960.72;4901508;29;20048;-84
2023/05/12 03:52:04;;;;;;;22.15;18.40;;;;;;;12.13;100.00;100968.56;4899019;29;20048;-81
2023/05/12 03:54:31;;;;;;;27.10;20.33;;;;;;;12.13;100.00;100965.94;4901812;29;20460;-83
2023/05/12 03:56:57;;;;;;;19.98;17.77;;;;;;;12.15;100.00;100964.16;4918757;29;20135;-83
2023/05/12 03:59:24;;;;;;;25.65;20.15;;;;;;;12.15;100.00;100967.66;4901375;29;20127;-80
2023/05/12 04:01:52;;;;;;;23.00;18.55;;;;;;;12.15;100.00;100965.03;4898892;29;20104;-81
2023/05/12 04:04:22;;;;;;;24.67;19.35;;;;;;;12.17;100.00;100963.25;4890070;29;20049;-80
2023/05/12 04:06:48;;;;;;;24.65;19.50;;;;;;;12.16;100.00;100956.28;4896215;29;20059;-82
2023/05/12 04:09:20;;;;;;;24.77;20.90;;;;;;;12.15;100.00;100970.28;4899603;29;20043;-83
2023/05/12 04:11:46;;;;;;;30.52;22.17;;;;;;;12.12;100.00;100983.44;4897565;29;20111;-82
2023/05/12 04:14:13;;;;;;;31.80;24.23;;;;;;;12.13;100.00;100990.41;4894744;29;20402;-84
2023/05/12 04:16:39;;;;;;;27.55;23.05;;;;;;;12.14;100.00;101001.81;4910092;29;20085;-86
2023/05/12 04:19:06;;;;;;;25.77;22.25;;;;;;;12.15;100.00;101006.16;4899707;29;20059;-84
2023/05/12 04:21:32;;;;;;;30.70;22.85;;;;;;;12.15;100.00;100998.28;4879869;29;20056;-84
2023/05/12 04:23:59;;;;;;;27.98;22.92;;;;;;;12.18;100.00;101000.88;4911996;29;20044;-82
2023/05/12 04:26:25;;;;;;;27.63;23.13;;;;;;;12.19;100.00;101008.75;4914289;29;20051;-82
2023/05/12 04:28:52;;;;;;;29.35;23.42;;;;;;;12.24;100.00;101017.44;4913614;29;20099;-81
2023/05/12 04:31:19;;;;;;;26.13;21.98;;;;;;;12.27;100.00;101016.53;4918931;29;20055;-85
2023/05/12 04:33:45;;;;;;;30.67;24.33;;;;;;;12.30;100.00;101021.75;4919578;29;20043;-89
2023/05/12 04:36:12;;;;;;;29.23;22.90;;;;;;;12.31;100.00;101018.25;4901873;29;20115;-83
2023/05/12 04:38:40;;;;;;;28.02;22.25;;;;;;;12.33;100.00;101007.72;4911233;29;20046;-82
2023/05/12 04:41:07;;;;;;;24.83;20.85;;;;;;;12.37;100.00;101015.56;4903731;29;20383;-84
2023/05/12 04:43:34;;;;;;;25.80;21.40;;;;;;;12.40;100.00;101023.41;4919219;29;20102;-82
2023/05/12 04:46:00;;;;;;;25.95;21.35;;;;;;;12.43;100.00;101022.50;4898742;29;20071;-80
2023/05/12 04:48:28;;;;;;;25.65;21.35;;;;;;;12.48;100.00;101018.06;4918128;29;20040;-83
2023/05/12 04:50:55;;;;;;;25.55;22.20;;;;;;;12.51;100.00;101025.88;4917225;29;20048;-81
2023/05/12 04:53:22;;;;;;;22.77;20.08;;;;;;;12.52;100.00;101029.41;4916865;29;20120;-82
2023/05/12 04:55:50;;;;;;;26.67;22.02;;;;;;;12.54;100.00;101035.50;4912924;29;20078;-81
2023/05/12 04:58:16;;;;;;;26.30;21.08;;;;;;;12.52;100.00;101037.28;4926088;29;20098;-83
2023/05/12 05:00:43;;;;;;;21.00;18.88;;;;;;;12.51;100.00;101028.53;4915548;29;20051;-84
2023/05/12 05:03:09;;;;;;;22.83;19.33;;;;;;;12.54;100.00;101036.38;4919135;29;20039;-82
2023/05/12 05:05:36;;;;;;;23.27;20.05;;;;;;;12.58;100.00;101045.09;4918299;29;20040;-88
2023/05/12 05:08:02;;;;;;;27.15;21.05;;;;;;;12.61;100.00;101039.81;4925296;29;20047;-81
2023/05/12 05:10:29;;;;;;;29.75;21.17;;;;;;;12.66;100.00;101048.50;4901055;29;20055;-81
2023/05/12 05:12:55;;;;;;;24.30;20.88;;;;;;;12.69;100.00;101048.47;4924069;29;20047;-82
2023/05/12 05:15:22;;;;;;;26.75;21.15;;;;;;;12.71;100.00;101054.59;4927680;29;20051;-82
2023/05/12 05:17:48;;;;;;;21.98;19.52;;;;;;;12.75;100.00;101050.16;4919561;29;20040;-81
2023/05/12 05:20:16;;;;;;;23.52;19.45;;;;;;;12.80;100.00;101056.25;4940004;29;20123;-84
2023/05/12 05:22:43;;;;;;;26.05;20.75;;;;;;;12.87;100.00;101051.78;4928945;29;20055;-82
2023/05/12 05:25:10;;;;;;;25.17;20.20;;;;;;;12.90;100.00;101059.59;4910175;29;20494;-81
2023/05/12 05:27:38;;;;;;;19.48;17.38;;;;;;;12.93;100.00;101062.19;4920671;29;20042;-82
2023/05/12 05:30:07;;;;;;;23.25;19.50;;;;;;;12.94;100.00;101065.69;4917770;29;20039;-81
2023/05/12 05:32:39;;;;;;;23.65;18.95;;;;;;;12.99;100.00;101059.50;4917724;29;20494;-80
2023/05/12 05:35:07;;;;;;;16.08;14.35;;;;;;;13.11;100.00;101062.88;4903495;29;20039;-92
2023/05/12 05:37:34;;;;;;;20.35;17.60;;;;;;;13.20;100.00;101066.22;4920983;29;20433;-82
2023/05/12 05:40:01;;;;;;;23.92;19.77;;;;;;;13.25;100.00;101071.44;4919195;29;20546;-82
2023/05/12 05:42:29;;;;;;;20.73;16.55;;;;;;;13.29;100.00;101067.88;4903646;29;20051;-82
2023/05/12 05:44:56;;;;;;;21.13;18.55;;;;;;;13.39;100.00;101068.66;4914625;29;20044;-82
2023/05/12 05:47:23;;;;;;;19.67;17.63;;;;;;;13.47;100.00;101066.78;4917546;29;20066;-81
2023/05/12 05:49:49;;;;;;;22.92;18.85;;;;;;;13.52;100.00;101064.97;4906874;29;20153;-83
2023/05/12 05:52:16;;;;;;;16.42;14.73;;;;;;;13.63;100.00;101064.78;4924441;29;20064;-82
2023/05/12 05:54:42;;;;;;;18.15;15.68;;;;;;;13.72;100.00;101071.69;4921849;29;20044;-80
2023/05/12 05:57:09;;;;;;;19.75;16.20;;;;;;;13.78;100.00;101074.22;4905506;29;20115;-81
2023/05/12 05:59:36;;;;;;;19.98;17.92;;;;;;;13.86;100.00;101076.75;4921006;29;20047;-87
2023/05/12 06:02:05;;;;;;;20.85;17.33;;;;;;;13.94;100.00;101081.88;4918331;29;20064;-81
2023/05/12 06:04:31;;;;;;;15.32;13.75;;;;;;;14.06;100.00;101082.53;4936657;29;20490;-80
2023/05/12 06:06:58;;;;;;;19.40;16.77;;;;;;;14.17;100.00;101082.38;4912926;29;20085;-82
2023/05/12 06:09:25;;;;;;;16.92;15.27;;;;;;;14.27;100.00;101077.78;4892096;29;20505;-81
2023/05/12 06:11:52;;;;;;;16.70;14.98;;;;;;;14.31;100.00;101084.75;4917710;29;20086;-81
2023/05/12 06:14:18;;;;;;;14.77;13.32;;;;;;;14.38;100.00;101082.88;4919499;29;20600;-84
2023/05/12 06:16:45;;;;;;;17.33;14.90;;;;;;;14.42;100.00;101094.22;4918313;29;20040;-82
2023/05/12 06:19:11;;;;;;;18.45;14.82;;;;;;;14.51;100.00;101092.31;4901153;29;20052;-83
2023/05/12 06:21:41;;;;;;;15.18;13.25;;;;;;;14.56;100.00;101094.84;4904181;29;20043;-82
2023/05/12 06:24:07;;;;;;;16.77;15.13;;;;;;;14.65;100.00;101096.47;4917117;29;20047;-81
2023/05/12 06:26:34;;;;;;;17.85;14.77;;;;;;;14.71;100.00;101097.22;4920355;29;20055;-80
2023/05/12 06:29:00;;;;;;;18.88;16.15;;;;;;;14.66;100.00;101101.72;4915710;29;20066;-83
2023/05/12 06:31:27;;;;;;;15.98;14.38;;;;;;;14.63;100.00;101101.75;4911696;29;20055;-81
2023/05/12 06:33:55;;;;;;;13.73;12.32;;;;;;;14.66;100.00;101106.13;4921410;29;20118;-80
2023/05/12 06:36:22;;;;;;;14.63;12.80;;;;;;;14.66;100.00;101108.75;4903840;29;20111;-83
2023/05/12 06:38:51;;;;;;;13.85;11.85;;;;;;;14.63;100.00;101107.00;4909623;29;20500;-82
2023/05/12 06:41:17;;;;;;;12.93;11.65;;;;;;;14.61;100.00;101110.56;4919675;29;20070;-82
2023/05/12 06:43:44;;;;;;;14.00;12.68;;;;;;;14.61;100.00;101108.78;4911432;29;20035;-82
2023/05/12 06:46:11;;;;;;;14.15;12.65;;;;;;;14.61;100.00;101108.78;4914112;29;20048;-81
2023/05/12 06:48:37;;;;;;;16.17;13.73;;;;;;;14.62;100.00;101107.03;4922556;29;20542;-84
2023/05/12 06:51:04;;;;;;;18.42;13.82;;;;;;;14.65;100.00;101102.63;4902440;29;20052;-80
2023/05/12 06:53:31;;;;;;;12.13;11.00;;;;;;;14.72;100.00;101112.13;4912499;29;20040;-81
2023/05/12 06:55:57;;;;;;;14.25;12.35;;;;;;;14.77;100.00;101109.44;4911746;29;20787;-81
2023/05/12 06:58:24;;;;;;;13.90;12.40;;;;;;;14.88;100.00;101112.69;4911142;29;20040;-86
2023/05/12 07:00:50;;;;;;;17.23;12.68;;;;;;;15.05;100.00;101120.28;4907566;29;20409;-83
2023/05/12 07:03:17;;;;;;;11.40;10.05;;;;;;;15.07;100.00;101108.84;4924189;29;20064;-85
2023/05/12 07:05:44;;;;;;;12.85;11.32;;;;;;;15.13;100.00;101114.00;4908750;29;20055;-81
2023/05/12 07:08:10;;;;;;;14.25;10.77;;;;;;;15.18;100.00;101114.75;4904045;29;20111;-80
2023/05/12 07:10:38;;;;;;;12.25;11.18;;;;;;;15.24;100.00;101117.28;4903911;29;20044;-86
2023/05/12 07:13:05;;;;;;;12.30;11.05;;;;;;;15.31;100.00;101118.03;4916283;29;20508;-82
2023/05/12 07:15:32;;;;;;;10.57;9.48;;;;;;;15.38;100.00;101115.22;4909846;29;20043;-81
2023/05/12 07:17:58;;;;;;;11.82;10.63;;;;;;;15.53;100.00;101115.78;4907926;29;20047;-82
2023/05/12 07:20:25;;;;;;;12.18;10.25;;;;;;;15.54;99.66;101117.53;4906602;29;20048;-91
2023/05/12 07:22:53;;;;;;;16.10;10.73;;;;;;;15.55;98.86;101121.88;4912862;29;20055;-80
2023/05/12 07:25:20;;;;;;;12.27;10.32;;;;;;;15.58;97.42;101116.56;4894381;29;20405;-91
2023/05/12 07:27:46;;;;;;;11.65;9.82;;;;;;;15.61;93.74;101124.38;4899153;29;20052;-82
2023/05/12 07:30:13;;;;;;;12.48;9.75;;;;;;;15.62;95.56;101119.97;4938614;29;20044;-84
2023/05/12 07:32:40;;;;;;;9.82;8.90;;;;;;;15.72;95.69;101118.84;4913302;29;20138;-81
2023/05/12 07:35:07;;;;;;;11.40;8.98;;;;;;;15.77;94.92;101118.75;4914710;29;20035;-83
2023/05/12 07:37:33;;;;;;;11.63;8.95;;;;;;;15.89;94.58;101129.06;4913490;29;20052;-83
2023/05/12 07:40:00;;;;;;;9.57;8.68;;;;;;;15.96;93.47;101129.81;4921791;29;20068;-81
2023/05/12 07:42:26;;;;;;;11.82;9.65;;;;;;;16.01;92.85;101130.56;4898145;29;20059;-79
2023/05/12 07:44:53;;;;;;;11.07;9.90;;;;;;;16.14;92.57;101131.09;4902764;29;20075;-82
2023/05/12 07:47:19;;;;;;;8.18;7.57;;;;;;;16.30;91.77;101131.63;4936718;29;20047;-81
2023/05/12 07:49:46;;;;;;;10.05;7.50;;;;;;;16.51;89.12;101128.41;4919171;29;20035;-82
2023/05/12 07:52:12;;;;;;;8.27;7.57;;;;;;;16.71;89.65;101129.66;4930004;29;20066;-82
2023/05/12 07:54:39;;;;;;;9.20;7.47;;;;;;;16.97;87.50;101131.63;4903104;29;20048;-81
2023/05/12 07:57:06;;;;;;;7.88;7.13;;;;;;;17.14;85.47;101122.34;4913881;29;20050;-88
2023/05/12 07:59:32;;;;;;;8.48;6.65;;;;;;;17.30;83.84;101125.41;4913403;29;20135;-83
2023/05/12 08:01:59;;;;;;;9.05;7.75;;;;;;;17.46;81.58;101126.69;4917260;29;20135;-82
2023/05/12 08:04:25;;;;;;;13.98;6.45;;;;;;;17.60;82.55;101128.91;4935476;29;20059;-84
2023/05/12 08:06:52;;;;;;;6.85;6.18;;;;;;;17.77;81.78;101124.84;4917854;29;20044;-83
2023/05/12 08:09:18;;;;;;;6.85;5.90;;;;;;;17.91;80.00;101130.59;4915811;29;20054;-82
2023/05/12 08:11:45;;;;;;;7.40;6.05;;;;;;;17.93;79.53;101128.78;4899371;29;20044;-87
2023/05/12 08:14:11;;;;;;;10.60;6.40;;;;;;;18.10;78.43;101128.25;4918066;29;20035;-86
2023/05/12 08:16:38;;;;;;;6.70;6.03;;;;;;;18.18;77.14;101130.66;4904801;29;20070;-86
2023/05/12 08:19:05;;;;;;;6.43;5.82;;;;;;;18.27;77.43;101129.47;4903565;29;20040;-84
2023/05/12 08:21:31;;;;;;;7.18;5.55;;;;;;;18.37;75.14;101132.66;4900154;29;20561;-82
2023/05/12 08:23:58;;;;;;;5.05;4.65;;;;;;;18.33;72.82;101130.13;4899439;29;20052;-83
2023/05/12 08:26:25;;;;;;;6.97;4.95;;;;;;;18.32;72.39;101135.50;4916713;29;20056;-82
2023/05/12 08:28:51;;;;;;;5.63;5.03;;;;;;;18.43;72.08;101141.28;4912538;29;20044;-82
2023/05/12 08:31:20;;;;;;;5.45;5.03;;;;;;;18.56;71.38;101143.53;4896311;29;20060;-84
2023/05/12 08:33:47;;;;;;;5.78;4.78;;;;;;;18.67;71.22;101136.94;4905834;29;20044;-82
2023/05/12 08:36:14;;;;;;;4.10;3.75;;;;;;;18.79;71.33;101135.63;4900321;29;20574;-85
2023/05/12 08:38:41;;;;;;;5.18;4.72;;;;;;;19.00;69.10;101135.81;4915097;29;20428;-83
2023/05/12 08:41:24;;;;;;;6.53;4.70;;;;;;;19.34;68.50;101134.56;4905906;29;20099;-84
2023/05/12 08:43:52;;;;;;;5.65;4.47;;;;;;;19.62;69.17;101134.34;4910655;29;20044;-82
2023/05/12 08:46:20;;;;;;;6.07;5.13;;;;;;;19.75;66.08;101137.41;4906894;29;20055;-84
2023/05/12 08:48:50;;;;;;;9.75;5.07;;;;;;;19.67;65.78;101137.69;4897211;29;20044;-86
2023/05/12 08:51:19;;;;;;;4.90;4.50;;;;;;;19.55;65.70;101138.16;4913901;29;20118;-88
2023/05/12 08:53:47;;;;;;;5.32;4.82;;;;;;;19.70;65.87;101130.50;4929804;29;20040;-82
2023/05/12 08:56:18;;;;;;;8.50;5.68;;;;;;;20.11;63.57;101123.56;4910763;29;20083;-83
2023/05/12 08:58:46;;;;;;;5.88;5.38;;;;;;;20.64;62.99;101130.19;4904571;29;20063;-82
2023/05/12 09:01:13;;;;;;;8.70;4.68;;;;;;;21.21;58.76;101128.59;4900798;29;20417;-84
2023/05/12 09:03:40;;;;;;;8.05;5.65;;;;;;;21.57;58.26;101128.72;4912492;29;20044;-84
2023/05/12 09:06:08;;;;;;;9.02;5.55;;;;;;;22.08;56.84;101126.25;4906890;29;20040;-83
2023/05/12 09:08:36;;;;;;;7.10;5.15;;;;;;;22.33;54.48;101125.00;4904889;29;20036;-81
2023/05/12 09:11:03;;;;;;;4.32;4.03;;;;;;;22.50;52.97;101128.66;4903420;29;20040;-82
2023/05/12 09:13:45;;;;;;;5.78;4.72;;;;;;;23.05;51.07;101131.09;4901800;29;20708;-82
2023/05/12 09:16:13;;;;;;;4.93;4.18;;;;;;;24.41;48.08;101122.63;4898502;29;20044;-88
2023/05/12 09:18:55;;;;;;;5.85;4.88;;;;;;;25.51;41.76;101123.94;4919021;29;20048;-83
2023/05/12 09:21:22;;;;;;;4.35;3.95;;;;;;;26.07;42.79;101126.56;4898393;29;20052;-85
2023/05/12 09:24:04;;;;;;;5.50;4.93;;;;;;;26.30;40.87;101129.53;4896823;29;20071;-82
2023/05/12 09:26:48;;;;;;;5.28;4.78;;;;;;;26.49;41.18;101129.09;4916985;29;20071;-82
2023/05/12 09:29:22;;;;;;;4.53;4.13;;;;;;;26.92;39.83;101126.13;4937712;29;20471;-83
2023/05/12 09:31:56;;;;;;;8.60;4.70;;;;;;;27.21;38.00;101126.75;4900411;29;20059;-82
2023/05/12 09:34:31;;;;;;;4.18;3.90;;;;;;;27.51;39.25;101130.91;4919760;29;20048;-82
2023/05/12 09:37:00;;;;;;;4.90;4.28;;;;;;;27.39;37.64;101124.59;4920450;29;20094;-83
2023/05/12 09:39:28;;;;;;;4.55;4.22;;;;;;;27.67;37.56;101130.63;4911378;29;20123;-81
2023/05/12 09:41:55;;;;;;;5.03;3.83;;;;;;;28.95;36.46;101125.44;4893989;29;20112;-82
2023/05/12 09:44:23;;;;;;;4.07;3.78;;;;;;;30.09;33.93;101126.16;4916253;29;20146;-83
2023/05/12 09:46:50;;;;;;;3.38;3.00;;;;;;;30.34;33.16;101126.75;4914121;29;20040;-86
2023/05/12 09:49:25;;;;;;;4.80;4.03;;;;;;;30.90;32.38;101121.97;4929749;29;20042;-84
2023/05/12 09:51:57;;;;;;;7.13;4.15;;;;;;;30.99;30.32;101123.91;4912273;29;20550;-87
2023/05/12 09:54:26;;;;;;;3.60;3.28;;;;;;;30.71;31.66;101120.06;4930350;29;20048;-85
2023/05/12 09:57:00;;;;;;;7.32;3.85;;;;;;;30.36;30.46;101124.78;4918964;29;20158;-83
2023/05/12 09:59:33;;;;;;;4.35;3.72;;;;;;;30.76;30.31;101121.34;4902041;29;20107;-87
2023/05/12 10:02:03;;;;;;;4.80;3.28;;;;;;;30.67;30.18;101128.41;4900428;29;20062;-83
2023/05/12 10:04:38;;;;;;;4.38;3.60;;;;;;;31.16;27.85;101123.28;4915615;29;20040;-84
2023/05/12 10:07:10;;;;;;;2.88;2.55;;;;;;;31.56;27.54;101124.22;4925413;29;20052;-86
2023/05/12 10:09:41;;;;;;;6.65;3.72;;;;;;;31.73;28.04;101130.81;4919293;29;20051;-83
2023/05/12 10:12:10;;;;;;;3.00;2.83;;;;;;;32.62;25.91;101120.78;4931808;29;20059;-83
2023/05/12 10:14:37;;;;;;;2.88;2.67;;;;;;;33.22;25.11;101127.72;4932681;29;20040;-82
2023/05/12 10:17:06;;;;;;;3.25;3.05;;;;;;;33.93;24.77;101121.59;4924754;29;20039;-82
2023/05/12 10:19:33;;;;;;;3.40;3.10;;;;;;;32.89;26.01;101120.03;4934866;29;20043;-84
2023/05/12 10:22:00;;;;;;;4.65;3.53;;;;;;;32.84;25.54;101116.06;4913249;29;20471;-84
2023/05/12 10:24:28;;;;;;;3.53;3.03;;;;;;;32.72;25.71;101129.78;4918291;29;20118;-83
2023/05/12 10:26:56;;;;;;;3.47;3.28;;;;;;;32.36;25.72;101124.16;4889597;29;20127;-85
2023/05/12 10:29:28;;;;;;;5.13;3.33;;;;;;;32.24;24.85;101128.88;4877182;29;20399;-84
2023/05/12 10:31:59;;;;;;;4.22;3.63;;;;;;;31.78;25.90;101125.84;4886852;29;20532;-84
2023/05/12 10:34:44;;;;;;;3.33;3.13;;;;;;;32.12;25.50;101130.84;4892081;29;20522;-82
2023/05/12 10:37:11;;;;;;;3.10;2.75;;;;;;;31.22;25.39;101135.38;4900923;29;20048;-82
2023/05/12 10:39:48;;;;;;;3.88;3.53;;;;;;;31.11;25.67;101130.09;4899117;29;20067;-83
2023/05/12 10:42:23;;;;;;;4.38;3.50;;;;;;;31.68;25.74;101133.13;4879876;29;20060;-87
2023/05/12 10:44:56;;;;;;;3.83;3.38;;;;;;;32.93;25.57;101128.72;4882529;29;20083;-83
2023/05/12 10:47:36;;;;;;;3.42;3.13;;;;;;;33.15;23.88;101132.91;4882998;29;20072;-85
2023/05/12 10:50:03;;;;;;;3.35;3.10;;;;;;;33.19;24.62;101128.03;4897705;29;20056;-84
2023/05/12 10:52:30;;;;;;;3.83;2.42;;;;;;;33.58;23.03;101133.28;4883587;29;20048;-84
2023/05/12 10:55:01;;;;;;;4.15;3.80;;;;;;;32.20;24.25;101137.44;4879545;29;20052;-84
2023/05/12 10:57:29;;;;;;;3.77;3.33;;;;;;;31.91;25.00;101132.84;4893141;29;20051;-83
2023/05/12 11:00:00;;;;;;;3.20;3.00;;;;;;;32.22;24.06;101132.72;4892253;29;20067;-83
2023/05/12 11:02:31;;;;;;;5.10;3.97;;;;;;;33.43;23.55;101128.38;4898313;29;20139;-83
2023/05/12 11:05:04;;;;;;;4.50;3.92;;;;;;;34.13;23.03;101129.56;4897046;29;20117;-87
2023/05/12 11:07:34;;;;;;;3.38;3.08;;;;;;;34.40;22.48;101127.78;4875828;29;20049;-84
2023/05/12 11:10:04;;;;;;;3.90;3.63;;;;;;;34.58;22.30;101131.31;4894201;29;20381;-83
2023/05/12 11:12:36;;;;;;;3.40;3.10;;;;;;;34.14;21.44;101128.56;4896323;29;20040;-84